Time;durP1;ratioP1;P1;durP2;ratioP2;P2;SDS_P1;SDS_P2;PMS_P1;PMS_P2;Temp;Humidity;BMP_temperature;BMP_pressure;BME280_temperature;BME280_humidity;BME280_pressure;Samples;Min_cycle;Max_cycle;Signal;HPM_P1;HPM_P2
2022/11/22 00:01:22;;;;;;;12.98;8.48;;;;;;;0.97;100.00;99434.41;5035118;28;20139;-76
2022/11/22 00:03:47;;;;;;;7.45;6.13;;;;;;;0.86;100.00;99400.69;5050279;28;20429;-76
2022/11/22 00:06:13;;;;;;;9.93;4.72;;;;;;;1.06;100.00;99425.03;5051121;28;20037;-76
2022/11/22 00:08:38;;;;;;;7.97;6.45;;;;;;;1.00;100.00;99420.34;5053498;28;20032;-76
2022/11/22 00:11:03;;;;;;;11.70;11.05;;;;;;;1.00;100.00;99407.34;5051822;28;20033;-76
2022/11/22 00:13:29;;;;;;;6.43;4.68;;;;;;;0.77;100.00;99365.06;5053742;28;20024;-76
2022/11/22 00:15:59;;;;;;;16.48;7.25;;;;;;;0.87;100.00;99391.09;5052051;28;20024;-76
2022/11/22 00:18:24;;;;;;;9.40;7.80;;;;;;;0.94;100.00;99392.28;5052726;28;20036;-76
2022/11/22 00:20:50;;;;;;;6.75;5.72;;;;;;;0.82;100.00;99371.50;5051457;28;20045;-76
2022/11/22 00:23:15;;;;;;;8.10;7.40;;;;;;;0.84;100.00;99370.59;5052671;28;20043;-76
2022/11/22 00:25:40;;;;;;;10.82;9.80;;;;;;;0.95;100.00;99389.53;5052335;28;20071;-76
2022/11/22 00:28:06;;;;;;;8.50;6.35;;;;;;;0.97;100.00;99386.81;5036427;28;20510;-76
2022/11/22 00:30:31;;;;;;;8.18;3.65;;;;;;;0.89;100.00;99356.25;5035449;28;20119;-76
2022/11/22 00:32:56;;;;;;;7.30;6.72;;;;;;;1.06;100.00;99380.88;5051124;28;20033;-76
2022/11/22 00:35:22;;;;;;;13.50;6.97;;;;;;;0.89;100.00;99358.03;5018056;28;20033;-76
2022/11/22 00:37:47;;;;;;;12.40;11.15;;;;;;;1.07;100.00;99376.50;5034688;28;20072;-76
2022/11/22 00:40:13;;;;;;;7.57;5.22;;;;;;;1.09;100.00;99385.00;5055968;28;20032;-76
2022/11/22 00:42:38;;;;;;;11.23;9.77;;;;;;;1.12;100.00;99382.16;5055565;28;20032;-76
2022/11/22 00:45:04;;;;;;;9.38;6.57;;;;;;;1.15;100.00;99372.31;5053525;28;20033;-77
2022/11/22 00:47:29;;;;;;;12.27;4.93;;;;;;;1.06;100.00;99354.88;5024123;28;20382;-77
2022/11/22 00:49:54;;;;;;;6.07;5.50;;;;;;;1.17;100.00;99361.81;5056222;28;20078;-76
2022/11/22 00:52:20;;;;;;;10.18;9.23;;;;;;;1.06;100.00;99348.88;5056659;28;20083;-76
2022/11/22 00:54:46;;;;;;;12.95;11.73;;;;;;;1.22;100.00;99376.09;5057197;28;20054;-76
2022/11/22 00:57:11;;;;;;;12.23;9.48;;;;;;;1.20;100.00;99367.59;5056940;28;20045;-76
2022/11/22 00:59:37;;;;;;;8.15;7.43;;;;;;;1.29;100.00;99372.97;5055240;28;20028;-76
2022/11/22 01:02:02;;;;;;;9.73;6.80;;;;;;;1.29;100.00;99370.38;5052715;28;20443;-77
2022/11/22 01:04:27;;;;;;;18.33;8.52;;;;;;;1.30;100.00;99372.03;5055725;28;20032;-76
2022/11/22 01:06:53;;;;;;;10.02;7.93;;;;;;;1.26;100.00;99349.81;5058603;28;20035;-76
2022/11/22 01:09:21;;;;;;;12.35;10.85;;;;;;;1.33;100.00;99350.97;5038463;28;20037;-77
2022/11/22 01:11:46;;;;;;;8.98;7.55;;;;;;;1.38;100.00;99354.03;5054684;28;20122;-77
2022/11/22 01:14:12;;;;;;;7.65;6.32;;;;;;;1.22;100.00;99337.09;5057172;28;20083;-77
2022/11/22 01:16:38;;;;;;;12.15;7.57;;;;;;;1.37;100.00;99352.34;5057064;28;20389;-76
2022/11/22 01:19:03;;;;;;;8.00;5.80;;;;;;;1.38;100.00;99348.81;5039686;28;20041;-76
2022/11/22 01:21:29;;;;;;;10.40;9.60;;;;;;;1.35;100.00;99349.06;5054658;28;20048;-76
2022/11/22 01:23:54;;;;;;;9.40;8.52;;;;;;;1.35;100.00;99354.25;5040261;28;20504;-76
2022/11/22 01:26:19;;;;;;;9.90;6.57;;;;;;;1.30;100.00;99327.84;5055303;28;20025;-76
2022/11/22 01:28:45;;;;;;;18.40;7.00;;;;;;;1.35;100.00;99355.09;5038188;28;20481;-77
2022/11/22 01:31:10;;;;;;;9.45;6.10;;;;;;;1.26;100.00;99323.84;5056835;28;20115;-76
2022/11/22 01:33:35;;;;;;;12.27;5.50;;;;;;;1.39;100.00;99342.66;5037061;28;20036;-76
2022/11/22 01:36:01;;;;;;;13.38;10.55;;;;;;;1.35;100.00;99351.66;5050643;28;20041;-76
2022/11/22 01:38:26;;;;;;;16.13;14.77;;;;;;;1.35;100.00;99346.47;5038860;28;20029;-76
2022/11/22 01:40:52;;;;;;;11.02;5.72;;;;;;;1.36;100.00;99332.53;5055114;28;20036;-77
2022/11/22 01:43:23;;;;;;;10.55;9.80;;;;;;;1.32;100.00;99355.34;5056201;28;20048;-77
2022/11/22 01:46:02;;;;;;;12.73;7.55;;;;;;;1.31;100.00;99345.09;5072148;28;20040;-76
2022/11/22 01:48:47;;;;;;;6.97;6.32;;;;;;;1.26;100.00;99342.03;5054049;28;20116;-76
2022/11/22 01:51:30;;;;;;;18.33;16.83;;;;;;;1.28;100.00;99347.94;5054380;28;20032;-76
2022/11/22 01:53:59;;;;;;;12.95;8.98;;;;;;;1.31;100.00;99347.69;5056800;28;20052;-76
2022/11/22 01:56:27;;;;;;;15.27;7.38;;;;;;;1.31;100.00;99343.31;5056338;28;20098;-76
2022/11/22 01:58:59;;;;;;;15.15;13.82;;;;;;;1.14;100.00;99318.72;5057312;28;20063;-76
2022/11/22 02:01:25;;;;;;;10.85;9.18;;;;;;;1.36;100.00;99333.34;5054265;28;20025;-76
2022/11/22 02:03:53;;;;;;;18.45;10.18;;;;;;;1.32;100.00;99328.53;5057732;28;20032;-76
2022/11/22 02:06:19;;;;;;;16.25;10.52;;;;;;;1.34;100.00;99331.81;5054122;28;20028;-76
2022/11/22 02:08:58;;;;;;;6.95;5.70;;;;;;;1.40;100.00;99323.53;5055685;28;20035;-76
2022/11/22 02:11:26;;;;;;;14.77;5.10;;;;;;;1.22;100.00;99323.28;5053413;28;20397;-76
2022/11/22 02:13:52;;;;;;;23.33;15.18;;;;;;;1.30;100.00;99336.44;5056210;28;20052;-76
2022/11/22 02:16:18;;;;;;;14.18;12.98;;;;;;;1.13;100.00;99282.44;5054679;28;20029;-76
2022/11/22 02:18:44;;;;;;;9.93;9.02;;;;;;;1.30;100.00;99314.84;5051935;28;20043;-76
2022/11/22 02:21:09;;;;;;;12.00;7.85;;;;;;;1.22;100.00;99298.13;5051436;28;20049;-77
2022/11/22 02:23:55;;;;;;;9.35;5.95;;;;;;;1.35;100.00;99320.47;5052113;28;20082;-76
2022/11/22 02:26:25;;;;;;;7.72;6.80;;;;;;;1.32;100.00;99316.34;5054469;28;20307;-76
2022/11/22 02:28:51;;;;;;;10.10;8.70;;;;;;;1.31;100.00;99306.09;5055782;28;20035;-77
2022/11/22 02:31:39;;;;;;;16.20;14.82;;;;;;;1.40;100.00;99310.53;5037762;28;20040;-77
2022/11/22 02:34:05;;;;;;;9.88;8.07;;;;;;;1.46;100.00;99325.63;5052655;28;20509;-76
2022/11/22 02:36:36;;;;;;;10.05;8.60;;;;;;;1.41;100.00;99309.56;5056158;28;20154;-76
2022/11/22 02:39:02;;;;;;;9.68;8.13;;;;;;;1.35;100.00;99294.47;5054405;28;20097;-76
2022/11/22 02:41:28;;;;;;;5.90;5.35;;;;;;;1.36;100.00;99283.94;5050125;28;20075;-76
2022/11/22 02:43:53;;;;;;;7.15;5.63;;;;;;;1.54;100.00;99301.53;5052657;28;20059;-76
2022/11/22 02:46:22;;;;;;;9.32;7.30;;;;;;;1.42;100.00;99286.03;5054915;28;20056;-76
2022/11/22 02:48:48;;;;;;;8.63;5.68;;;;;;;1.41;100.00;99283.56;5054197;28;20048;-76
2022/11/22 02:51:18;;;;;;;8.55;5.03;;;;;;;1.57;100.00;99291.72;5035855;28;20061;-76
2022/11/22 02:53:47;;;;;;;10.20;5.65;;;;;;;1.48;100.00;99281.25;5050715;28;20081;-76
2022/11/22 02:56:14;;;;;;;8.05;5.10;;;;;;;1.62;100.00;99288.72;5050178;28;20039;-76
2022/11/22 02:58:39;;;;;;;10.15;6.40;;;;;;;1.60;100.00;99290.63;5055584;28;20031;-76
2022/11/22 03:01:05;;;;;;;9.98;6.05;;;;;;;1.61;100.00;99293.09;5055061;28;20037;-76
2022/11/22 03:03:31;;;;;;;9.93;7.78;;;;;;;1.60;100.00;99283.66;5054913;28;20024;-76
2022/11/22 03:05:56;;;;;;;10.30;5.50;;;;;;;1.53;100.00;99266.13;5050970;28;20106;-76
2022/11/22 03:08:22;;;;;;;8.50;7.75;;;;;;;1.71;100.00;99281.91;5036843;28;20032;-76
2022/11/22 03:10:47;;;;;;;12.32;6.82;;;;;;;1.74;100.00;99279.03;5031707;28;20029;-77
2022/11/22 03:13:13;;;;;;;12.30;5.65;;;;;;;1.69;100.00;99286.41;5052927;28;20032;-77
2022/11/22 03:15:38;;;;;;;7.43;5.80;;;;;;;1.60;100.00;99269.81;5053991;28;20020;-76
2022/11/22 03:18:04;;;;;;;9.95;6.28;;;;;;;1.55;100.00;99272.81;5051493;28;20085;-76
2022/11/22 03:20:31;;;;;;;9.43;6.63;;;;;;;1.68;100.00;99295.16;5061931;28;20048;-76
2022/11/22 03:22:59;;;;;;;9.57;7.60;;;;;;;1.42;100.00;99259.22;5074959;28;20043;-76
2022/11/22 03:25:25;;;;;;;9.60;5.05;;;;;;;1.61;100.00;99280.09;5039891;28;20039;-76
2022/11/22 03:27:50;;;;;;;14.20;12.98;;;;;;;1.49;100.00;99282.94;5074683;28;20032;-77
2022/11/22 03:30:16;;;;;;;10.63;5.95;;;;;;;1.59;100.00;99284.63;5038622;28;20119;-78
2022/11/22 03:32:41;;;;;;;8.85;7.75;;;;;;;1.70;100.00;99304.50;5075447;28;20039;-77
2022/11/22 03:35:07;;;;;;;13.48;7.88;;;;;;;1.51;100.00;99276.63;5075574;28;20028;-76
2022/11/22 03:37:33;;;;;;;5.55;5.05;;;;;;;1.58;100.00;99279.53;5042584;28;20394;-77
2022/11/22 03:39:58;;;;;;;9.13;5.80;;;;;;;1.60;100.00;99291.44;5055296;28;20043;-77
2022/11/22 03:42:23;;;;;;;12.50;6.53;;;;;;;1.60;100.00;99265.44;5053065;28;20487;-76
2022/11/22 03:44:49;;;;;;;8.27;7.63;;;;;;;1.71;100.00;99298.34;5040878;28;20027;-78
2022/11/22 03:47:14;;;;;;;7.82;6.00;;;;;;;1.64;100.00;99286.81;5058145;28;20066;-76
2022/11/22 03:49:41;;;;;;;5.57;5.10;;;;;;;1.76;100.00;99303.13;5052870;28;20039;-76
2022/11/22 03:52:06;;;;;;;10.73;5.72;;;;;;;1.74;100.00;99302.44;5042511;28;20043;-76
2022/11/22 03:54:32;;;;;;;12.02;5.70;;;;;;;1.80;100.00;99310.53;5041903;28;20463;-76
2022/11/22 03:56:57;;;;;;;6.72;4.90;;;;;;;1.82;100.00;99310.44;5057114;28;20036;-76
2022/11/22 03:59:22;;;;;;;4.32;3.78;;;;;;;1.76;100.00;99290.13;5055311;28;20130;-76
2022/11/22 04:01:48;;;;;;;7.07;5.00;;;;;;;1.90;100.00;99318.41;5056010;28;20158;-76
2022/11/22 04:04:13;;;;;;;6.47;5.88;;;;;;;1.79;100.00;99300.28;5072169;28;20408;-76
2022/11/22 04:06:39;;;;;;;6.72;6.10;;;;;;;1.83;100.00;99292.09;5055237;28;20508;-76
2022/11/22 04:09:04;;;;;;;6.90;5.32;;;;;;;1.82;100.00;99292.22;5053392;28;20058;-76
2022/11/22 04:11:30;;;;;;;6.78;4.57;;;;;;;1.95;100.00;99308.41;5056054;28;20105;-75
2022/11/22 04:16:39;;;;;;;5.72;4.82;;;;;;;1.89;100.00;99301.13;5062017;28;20123;-75
2022/11/22 04:19:05;;;;;;;6.93;5.88;;;;;;;1.94;100.00;99306.78;5062231;28;20036;-75
2022/11/22 04:21:33;;;;;;;12.07;6.80;;;;;;;1.97;100.00;99316.09;5058762;28;20435;-75
2022/11/22 04:26:47;;;;;;;7.55;4.47;;;;;;;2.00;100.00;99313.22;5074810;28;20072;-76
2022/11/22 04:29:14;;;;;;;13.18;7.05;;;;;;;1.92;100.00;99300.88;5057047;28;20502;-76
2022/11/22 04:34:23;;;;;;;15.75;6.35;;;;;;;2.04;100.00;99312.00;5062138;28;20047;-75
2022/11/22 04:36:48;;;;;;;22.35;5.60;;;;;;;2.02;100.00;99316.50;5053811;28;20032;-75
2022/11/22 04:39:14;;;;;;;5.35;4.03;;;;;;;2.01;100.00;99284.47;5076967;28;20027;-75
2022/11/22 04:41:39;;;;;;;8.43;4.88;;;;;;;2.11;100.00;99322.69;5040984;28;20043;-75
2022/11/22 04:46:48;;;;;;;8.25;6.80;;;;;;;2.00;100.00;99300.19;5062109;28;20038;-75
2022/11/22 04:49:14;;;;;;;8.55;5.70;;;;;;;2.17;100.00;99314.34;5043055;28;20032;-77
2022/11/22 04:54:23;;;;;;;9.65;6.13;;;;;;;2.04;100.00;99299.78;5057982;28;20129;-77
2022/11/22 04:56:48;;;;;;;6.63;5.97;;;;;;;2.22;100.00;99323.44;5041844;28;20488;-76
2022/11/22 04:59:14;;;;;;;6.68;5.35;;;;;;;2.27;100.00;99317.81;5076862;28;20476;-76
2022/11/22 05:01:39;;;;;;;8.90;6.03;;;;;;;2.30;100.00;99320.13;5057940;28;20032;-76
2022/11/22 05:04:04;;;;;;;9.95;3.85;;;;;;;2.22;100.00;99301.75;5070697;28;20146;-76
2022/11/22 05:06:30;;;;;;;5.28;4.70;;;;;;;2.36;100.00;99322.19;5042155;28;20147;-76
2022/11/22 05:08:56;;;;;;;6.00;5.45;;;;;;;2.35;100.00;99312.75;5060062;28;20104;-76
2022/11/22 05:11:21;;;;;;;6.20;4.68;;;;;;;2.43;100.00;99331.13;5057763;28;20515;-76
2022/11/22 05:13:46;;;;;;;8.57;6.00;;;;;;;2.47;100.00;99327.28;5055200;28;20024;-76
2022/11/22 05:16:13;;;;;;;5.65;4.55;;;;;;;2.44;100.00;99324.97;5076767;28;20020;-76
2022/11/22 05:18:39;;;;;;;6.22;4.63;;;;;;;2.46;100.00;99324.81;5057257;28;20415;-76
2022/11/22 05:21:13;;;;;;;5.25;4.75;;;;;;;2.39;100.00;99308.09;5035465;28;1114931;-76
2022/11/22 05:23:54;;;;;;;16.23;4.90;;;;;;;2.47;100.00;99327.28;5073637;28;20761;-76
2022/11/22 05:26:24;;;;;;;6.38;3.80;;;;;;;2.59;100.00;99325.41;5062386;28;20459;-76
2022/11/22 05:28:49;;;;;;;5.95;5.00;;;;;;;2.57;100.00;99326.47;5075499;28;20031;-77
2022/11/22 05:31:22;;;;;;;9.38;6.70;;;;;;;2.46;100.00;99310.03;5056142;28;20028;-76
2022/11/22 05:33:49;;;;;;;8.20;4.72;;;;;;;2.66;100.00;99330.88;5073421;28;20035;-76
2022/11/22 05:36:14;;;;;;;5.40;3.97;;;;;;;2.61;100.00;99304.41;5076919;28;20028;-76
2022/11/22 05:38:40;;;;;;;6.75;6.03;;;;;;;2.71;100.00;99326.06;5070653;28;20043;-76
2022/11/22 05:41:10;;;;;;;12.65;7.70;;;;;;;2.77;100.00;99325.53;5052420;28;20032;-76
2022/11/22 05:43:36;;;;;;;9.73;5.85;;;;;;;2.61;100.00;99300.03;5055029;28;20570;-76
2022/11/22 05:46:16;;;;;;;5.40;4.75;;;;;;;2.80;100.00;99327.03;5076879;28;20032;-76
2022/11/22 05:48:44;;;;;;;5.65;4.07;;;;;;;2.85;100.00;99328.28;5058855;28;20480;-76
2022/11/22 05:51:12;;;;;;;11.32;4.97;;;;;;;2.84;100.00;99326.63;5052038;28;20020;-76
2022/11/22 05:53:38;;;;;;;5.78;2.80;;;;;;;2.85;100.00;99327.44;5058180;28;20573;-76
2022/11/22 05:56:14;;;;;;;13.45;6.90;;;;;;;2.81;100.00;99332.13;5072186;28;20452;-76
2022/11/22 05:58:40;;;;;;;5.40;4.38;;;;;;;2.84;100.00;99329.22;5041719;28;20043;-75
2022/11/22 06:01:08;;;;;;;4.70;4.25;;;;;;;2.86;100.00;99332.53;5037997;28;20033;-75
2022/11/22 06:03:34;;;;;;;11.45;4.90;;;;;;;2.88;100.00;99327.19;5072572;28;20036;-75
2022/11/22 06:06:00;;;;;;;4.88;4.05;;;;;;;2.83;100.00;99322.38;5037723;28;20073;-76
2022/11/22 06:08:31;;;;;;;13.93;4.15;;;;;;;2.81;100.00;99303.47;5068640;28;20514;-78
2022/11/22 06:11:23;;;;;;;9.68;4.15;;;;;;;2.85;100.00;99303.97;5070300;28;20024;-76
2022/11/22 06:13:52;;;;;;;4.93;2.70;;;;;;;3.05;100.00;99326.47;5050478;28;20044;-75
2022/11/22 06:16:17;;;;;;;6.47;5.47;;;;;;;3.00;100.00;99322.63;5036903;28;20036;-75
2022/11/22 06:18:43;;;;;;;5.45;3.58;;;;;;;3.05;100.00;99329.09;5069375;28;20106;-75
2022/11/22 06:21:14;;;;;;;5.93;4.05;;;;;;;3.01;100.00;99322.50;5032241;28;20393;-75
2022/11/22 06:23:40;;;;;;;5.22;4.30;;;;;;;3.11;100.00;99327.69;5071209;28;20490;-77
2022/11/22 06:26:08;;;;;;;7.95;4.57;;;;;;;3.08;100.00;99336.63;5073345;28;20032;-76
2022/11/22 06:28:35;;;;;;;10.98;5.55;;;;;;;3.09;100.00;99332.22;5071551;28;20031;-76
2022/11/22 06:31:03;;;;;;;5.40;4.00;;;;;;;3.18;100.00;99336.63;5072822;28;20614;-76
2022/11/22 06:33:29;;;;;;;8.25;4.25;;;;;;;3.12;100.00;99331.16;5073396;28;20051;-76
2022/11/22 06:36:00;;;;;;;6.70;4.00;;;;;;;3.16;100.00;99338.53;5073103;28;20098;-76
2022/11/22 06:38:26;;;;;;;5.78;5.20;;;;;;;3.06;100.00;99327.28;5052493;28;20031;-75
2022/11/22 06:40:51;;;;;;;8.93;4.53;;;;;;;3.03;100.00;99310.16;5054780;28;20041;-76
2022/11/22 06:43:16;;;;;;;6.43;4.47;;;;;;;3.14;100.00;99310.97;5039525;28;20032;-76
2022/11/22 06:45:42;;;;;;;6.57;4.32;;;;;;;3.16;100.00;99307.25;5038358;28;20028;-76
2022/11/22 06:48:07;;;;;;;6.88;5.30;;;;;;;3.23;100.00;99330.97;5038943;28;20563;-75
2022/11/22 06:50:32;;;;;;;6.65;4.10;;;;;;;3.25;100.00;99336.88;5039065;28;20035;-75
2022/11/22 06:52:58;;;;;;;6.00;5.18;;;;;;;3.19;100.00;99309.56;5052366;28;20040;-75
2022/11/22 06:55:23;;;;;;;10.45;6.07;;;;;;;3.23;100.00;99318.75;5052722;28;20059;-74
2022/11/22 06:57:50;;;;;;;7.68;5.00;;;;;;;3.25;100.00;99334.28;5069498;28;20558;-74
2022/11/22 07:00:18;;;;;;;4.78;3.45;;;;;;;3.20;100.00;99316.44;5069836;28;20439;-74
2022/11/22 07:02:43;;;;;;;10.45;6.57;;;;;;;3.21;100.00;99317.25;5055626;28;20036;-75
2022/11/22 07:05:09;;;;;;;8.70;5.07;;;;;;;3.41;100.00;99346.72;5055330;28;20900;-75
2022/11/22 07:07:34;;;;;;;5.65;4.78;;;;;;;3.35;100.00;99344.66;5048055;28;20156;-75
2022/11/22 07:09:59;;;;;;;10.98;5.05;;;;;;;3.13;100.00;99319.75;5039179;28;20099;-76
2022/11/22 07:12:25;;;;;;;5.28;3.85;;;;;;;3.15;100.00;99320.41;5039845;28;20016;-75
2022/11/22 07:14:50;;;;;;;7.32;5.55;;;;;;;3.23;100.00;99330.97;5072773;28;20027;-75
2022/11/22 07:17:16;;;;;;;14.63;4.32;;;;;;;3.38;100.00;99358.25;5053852;28;20033;-75
2022/11/22 07:19:41;;;;;;;15.30;5.85;;;;;;;3.40;100.00;99355.53;5056332;28;20504;-76
2022/11/22 07:22:07;;;;;;;6.20;5.60;;;;;;;3.25;100.00;99326.44;5071281;28;20048;-76
2022/11/22 07:24:32;;;;;;;14.95;4.25;;;;;;;3.43;100.00;99355.22;5056874;28;20040;-76
2022/11/22 07:26:57;;;;;;;6.35;5.70;;;;;;;3.47;100.00;99364.41;5022951;28;20415;-76
2022/11/22 07:29:23;;;;;;;6.30;3.45;;;;;;;3.32;100.00;99350.19;5055769;28;20400;-76
2022/11/22 07:31:48;;;;;;;6.82;3.50;;;;;;;3.44;100.00;99351.66;5039686;28;20027;-76
2022/11/22 07:34:13;;;;;;;6.80;4.63;;;;;;;3.47;100.00;99359.22;5054096;28;20466;-76
2022/11/22 07:36:39;;;;;;;7.80;4.35;;;;;;;3.50;100.00;99356.31;5037654;28;20093;-76
2022/11/22 07:39:04;;;;;;;7.18;4.25;;;;;;;3.33;100.00;99330.94;5054031;28;20129;-76
2022/11/22 07:41:29;;;;;;;5.32;3.85;;;;;;;3.55;100.00;99361.09;5055155;28;20680;-76
2022/11/22 07:43:56;;;;;;;6.68;4.72;;;;;;;3.61;100.00;99363.97;5037010;28;20020;-76
2022/11/22 07:46:28;;;;;;;10.98;5.95;;;;;;;3.63;100.00;99380.28;5056493;28;20480;-74
2022/11/22 07:48:54;;;;;;;9.85;5.80;;;;;;;3.54;100.00;99357.66;5071034;28;20523;-76
2022/11/22 07:51:19;;;;;;;21.73;6.22;;;;;;;3.75;100.00;99380.97;5056692;28;20020;-76
2022/11/22 07:53:45;;;;;;;6.63;4.82;;;;;;;3.73;100.00;99369.03;5071877;28;20024;-76
2022/11/22 07:56:10;;;;;;;4.88;4.38;;;;;;;3.65;100.00;99360.09;5053379;28;20473;-76
2022/11/22 07:58:36;;;;;;;6.32;5.03;;;;;;;3.74;100.00;99383.72;5054739;28;20027;-76
2022/11/22 08:01:15;;;;;;;5.53;4.75;;;;;;;3.79;100.00;99391.91;5037750;28;20085;-76
2022/11/22 08:03:41;;;;;;;6.30;5.57;;;;;;;3.78;100.00;99391.09;5039381;28;20036;-76
2022/11/22 08:06:09;;;;;;;4.03;3.63;;;;;;;3.69;100.00;99369.28;5039626;28;20027;-76
2022/11/22 08:08:35;;;;;;;7.45;5.05;;;;;;;3.71;100.00;99369.97;5039417;28;20874;-76
2022/11/22 08:11:01;;;;;;;5.03;4.18;;;;;;;3.65;100.00;99362.72;5053641;28;20021;-76
2022/11/22 08:13:27;;;;;;;7.45;4.32;;;;;;;3.74;100.00;99370.66;5038726;28;20043;-76
2022/11/22 08:15:53;;;;;;;7.78;6.40;;;;;;;3.94;100.00;99393.09;5071667;28;20508;-76
2022/11/22 08:18:18;;;;;;;5.30;4.43;;;;;;;3.82;100.00;99376.00;5039190;28;20028;-76
2022/11/22 08:20:44;;;;;;;6.45;4.68;;;;;;;4.05;100.00;99406.00;5051548;28;20064;-76
2022/11/22 08:23:09;;;;;;;9.45;4.82;;;;;;;3.99;100.00;99390.91;5052537;28;20044;-76
2022/11/22 08:25:35;;;;;;;7.03;4.40;;;;;;;4.15;100.00;99402.53;5038963;28;20463;-76
2022/11/22 08:28:00;;;;;;;8.32;3.65;;;;;;;4.12;100.00;99401.84;5071811;28;20077;-76
2022/11/22 08:30:26;;;;;;;7.32;4.88;;;;;;;4.13;100.00;99390.41;5054347;28;20523;-76
2022/11/22 08:32:54;;;;;;;9.38;4.50;;;;;;;4.22;100.00;99385.31;5052444;28;20043;-76
2022/11/22 08:35:19;;;;;;;5.05;4.50;;;;;;;4.32;100.00;99388.69;5073433;28;20103;-76
2022/11/22 08:37:45;;;;;;;16.60;3.10;;;;;;;4.19;100.00;99349.88;5053138;28;20115;-76
2022/11/22 08:40:11;;;;;;;6.70;4.38;;;;;;;4.53;100.00;99384.03;5070759;28;21042;-76
2022/11/22 08:42:36;;;;;;;4.68;3.22;;;;;;;4.57;100.00;99376.72;5053534;28;20023;-75
2022/11/22 08:45:02;;;;;;;4.28;3.63;;;;;;;4.77;100.00;99387.88;5073340;28;20040;-75
2022/11/22 08:47:27;;;;;;;8.05;3.80;;;;;;;4.78;100.00;99392.13;5071212;28;20392;-75
2022/11/22 08:49:53;;;;;;;9.07;5.13;;;;;;;4.86;100.00;99394.00;5053799;28;20519;-76
2022/11/22 08:52:18;;;;;;;6.82;3.97;;;;;;;4.89;100.00;99380.63;5054843;28;20024;-75
2022/11/22 08:54:43;;;;;;;5.38;4.88;;;;;;;4.97;100.00;99372.88;5039709;28;20032;-75
2022/11/22 08:57:09;;;;;;;8.98;4.45;;;;;;;5.06;100.00;99397.31;5054580;28;20499;-75
2022/11/22 08:59:34;;;;;;;5.47;3.85;;;;;;;5.05;100.00;99390.41;5072638;28;20031;-75
2022/11/22 09:01:59;;;;;;;4.97;2.95;;;;;;;5.09;100.00;99386.53;5041307;28;20032;-76
2022/11/22 09:04:25;;;;;;;4.10;2.70;;;;;;;5.08;100.00;99370.03;5057767;28;20369;-76
2022/11/22 09:06:50;;;;;;;2.25;2.05;;;;;;;5.11;100.00;99358.44;5026130;28;20477;-76
2022/11/22 09:09:16;;;;;;;9.80;4.45;;;;;;;5.16;100.00;99390.16;5056162;28;20020;-76
2022/11/22 09:11:41;;;;;;;3.88;2.55;;;;;;;5.07;100.00;99357.09;5074870;28;20032;-75
2022/11/22 09:14:07;;;;;;;9.65;3.17;;;;;;;5.32;100.00;99385.09;5042405;28;20028;-76
2022/11/22 09:16:32;;;;;;;2.33;2.10;;;;;;;5.26;100.00;99392.72;5076921;28;20162;-76
2022/11/22 09:18:58;;;;;;;2.45;1.75;;;;;;;5.23;100.00;99388.63;5056334;28;20051;-76
2022/11/22 09:21:23;;;;;;;3.58;1.98;;;;;;;5.41;100.00;99406.09;5074079;28;20555;-76
2022/11/22 09:23:50;;;;;;;2.13;1.48;;;;;;;5.40;100.00;99400.03;5058759;28;20024;-75
2022/11/22 09:26:21;;;;;;;1.67;1.38;;;;;;;5.40;100.00;99400.03;5057625;28;20024;-76
2022/11/22 09:28:47;;;;;;;6.55;2.47;;;;;;;5.24;100.00;99395.47;5057724;28;20026;-76
2022/11/22 09:31:15;;;;;;;2.80;1.95;;;;;;;5.32;100.00;99398.16;5074763;28;20024;-76
2022/11/22 09:33:45;;;;;;;12.75;3.63;;;;;;;5.19;100.00;99392.50;5056633;28;20519;-75
2022/11/22 09:36:16;;;;;;;17.45;2.90;;;;;;;5.38;100.00;99401.13;5075788;28;20036;-76
2022/11/22 09:38:42;;;;;;;6.85;2.80;;;;;;;5.27;100.00;99403.03;5074530;28;20583;-76
2022/11/22 09:41:22;;;;;;;1.73;1.63;;;;;;;5.40;100.00;99404.44;5056639;28;20090;-75
2022/11/22 09:43:58;;;;;;;2.35;1.23;;;;;;;5.15;100.00;99385.94;5055565;28;20025;-75
2022/11/22 09:46:42;;;;;;;1.85;1.65;;;;;;;5.35;100.00;99394.41;5053853;28;20137;-76
2022/11/22 09:49:26;;;;;;;7.40;1.73;;;;;;;5.41;100.00;99400.84;5073423;28;20115;-76
2022/11/22 09:52:18;;;;;;;5.55;0.93;;;;;;;5.40;100.00;99399.19;5074974;28;20051;-76
2022/11/22 09:54:53;;;;;;;2.05;1.70;;;;;;;5.49;100.00;99400.91;5056715;28;20021;-76
2022/11/22 09:57:23;;;;;;;3.45;1.45;;;;;;;5.40;100.00;99401.81;5056049;28;20482;-76
2022/11/22 10:00:00;;;;;;;1.67;1.57;;;;;;;5.54;100.00;99422.22;5073658;28;20028;-76
2022/11/22 10:02:36;;;;;;;2.75;1.88;;;;;;;5.45;100.00;99408.25;5074159;28;20325;-76
2022/11/22 10:05:12;;;;;;;1.02;0.88;;;;;;;5.58;100.00;99428.78;5074297;28;20028;-76
2022/11/22 10:08:01;;;;;;;2.17;1.45;;;;;;;5.41;100.00;99404.28;5056654;28;20275;-76
2022/11/22 10:10:37;;;;;;;3.33;1.70;;;;;;;5.24;100.00;99394.66;5074142;28;20099;-76
2022/11/22 10:13:10;;;;;;;5.57;1.33;;;;;;;5.40;100.00;99414.88;5071213;28;20112;-76
2022/11/22 10:15:38;;;;;;;5.70;1.48;;;;;;;5.48;100.00;99428.03;5057624;28;20023;-75
2022/11/22 10:18:19;;;;;;;1.95;1.10;;;;;;;5.36;100.00;99424.84;5071681;28;20506;-76
2022/11/22 10:20:44;;;;;;;2.03;0.98;;;;;;;5.32;100.00;99402.59;5072878;28;20418;-76
2022/11/22 10:23:17;;;;;;;7.15;1.05;;;;;;;5.56;100.00;99425.50;5055560;28;20062;-76
2022/11/22 10:26:12;;;;;;;4.20;0.80;;;;;;;5.47;100.00;99419.38;5071759;28;20024;-76
2022/11/22 10:28:59;;;;;;;3.30;1.10;;;;;;;5.41;100.00;99422.59;5053741;28;20451;-75
2022/11/22 10:31:43;;;;;;;1.65;1.33;;;;;;;5.66;100.00;99435.84;5055915;28;20139;-75
2022/11/22 10:34:17;;;;;;;1.55;1.45;;;;;;;5.63;100.00;99447.47;5055237;28;20593;-76
2022/11/22 10:36:58;;;;;;;5.65;1.00;;;;;;;5.50;100.00;99416.44;5072531;28;20123;-76
2022/11/22 10:39:48;;;;;;;0.57;0.45;;;;;;;5.61;100.00;99441.56;5071750;28;20124;-76
2022/11/22 10:42:34;;;;;;;3.78;1.23;;;;;;;5.73;100.00;99444.75;5073772;28;20032;-76
2022/11/22 10:45:14;;;;;;;0.85;0.82;;;;;;;5.66;100.00;99430.63;5072116;28;20048;-76
2022/11/22 10:48:17;;;;;;;3.05;0.80;;;;;;;5.71;100.00;99441.47;5073607;28;20020;-76
2022/11/22 10:50:56;;;;;;;1.77;1.65;;;;;;;5.72;100.00;99438.69;5071718;28;20124;-76
2022/11/22 10:53:46;;;;;;;4.72;0.95;;;;;;;5.81;100.00;99443.97;5072925;28;20089;-76
2022/11/22 10:56:36;;;;;;;3.05;1.55;;;;;;;5.74;100.00;99439.34;5072811;28;20444;-76
2022/11/22 10:59:19;;;;;;;8.85;0.93;;;;;;;5.89;100.00;99446.66;5055207;28;20034;-75
2022/11/22 11:02:34;;;;;;;0.90;0.60;;;;;;;5.74;100.00;99423.66;5054989;28;20035;-75
2022/11/22 11:05:05;;;;;;;0.60;0.60;;;;;;;5.66;100.00;99409.69;5071459;28;20031;-76
2022/11/22 11:07:31;;;;;;;2.88;1.17;;;;;;;5.92;100.00;99430.63;5073989;28;20033;-76
2022/11/22 11:10:01;;;;;;;1.75;0.90;;;;;;;6.77;100.00;99422.81;5055233;28;20038;-76
2022/11/22 11:12:31;;;;;;;5.97;0.45;;;;;;;7.04;100.00;99421.75;5072726;28;20078;-76
2022/11/22 11:15:03;;;;;;;3.00;0.98;;;;;;;7.41;100.00;99417.84;5073388;28;20019;-76
2022/11/22 11:17:35;;;;;;;0.95;0.52;;;;;;;7.54;100.00;99406.84;5072415;28;20107;-76
2022/11/22 11:20:12;;;;;;;2.75;1.30;;;;;;;8.04;100.00;99424.16;5055996;28;20016;-76
2022/11/22 11:22:38;;;;;;;7.45;1.27;;;;;;;7.65;100.00;99419.63;5072728;28;20048;-76
2022/11/22 11:25:26;;;;;;;1.30;0.47;;;;;;;7.41;100.00;99417.84;5072497;28;20024;-76
2022/11/22 11:27:53;;;;;;;2.92;0.73;;;;;;;7.09;100.00;99397.66;5073299;28;20024;-76
2022/11/22 11:30:18;;;;;;;3.55;1.20;;;;;;;7.09;100.00;99410.75;5054691;28;20028;-76
2022/11/22 11:32:52;;;;;;;2.05;0.38;;;;;;;6.90;100.00;99399.59;5052962;28;20023;-76
2022/11/22 11:35:20;;;;;;;1.73;0.47;;;;;;;6.95;100.00;99399.94;5071213;28;20581;-76
2022/11/22 11:37:46;;;;;;;1.50;0.50;;;;;;;6.88;100.00;99377.97;5073114;28;20032;-76
2022/11/22 11:40:31;;;;;;;1.45;1.17;;;;;;;6.92;100.00;99391.56;5055001;28;20032;-76
2022/11/22 11:43:26;;;;;;;1.48;0.50;;;;;;;7.01;100.00;99403.69;5054173;28;20049;-76
2022/11/22 11:45:52;;;;;;;1.33;0.70;;;;;;;7.05;100.00;99397.13;5054661;28;20734;-76
2022/11/22 11:48:36;;;;;;;0.68;0.50;;;;;;;6.88;100.00;99388.47;5055100;28;20032;-76
2022/11/22 11:51:15;;;;;;;1.10;0.70;;;;;;;6.76;100.00;99392.34;5053548;28;20037;-76
2022/11/22 11:53:49;;;;;;;1.25;0.65;;;;;;;6.84;100.00;99400.25;5055633;28;20031;-76